Dillingham Airport
PADL : now visible

Airfield :











YOU CAN JOIN US ON...

 
LOGIN :

Register | Disclaimer

   EN    FR    IT 

 









Legend :    VFR   Marginal VFR   IFR   Intensive IFR   Very Intensive IFR
Visi :
Ceiling :
>= 8 km
>= 3000ft
5 to 8 km
1000 to 3000 ft
1500m to 5 km
500 to 1000 ft
800 to 1500m
200 to 500 ft
< 800m
< 200 ft
Symbols :   Thunderstorms  Fog  Heavy snow  Heavy precipitations  Wind > 20 kt






- Airport Elevation : 81 ft
- IATA code : DLG


PADL - Dillingham

CURRENT METAR :
  • 151756Z 36007KT 10SM OVC070 01/M05 A2925 RMK AO2 SLP910 T00111050 10017 21011 51007

EXPIRED METARs :
  • 151656Z 01009KT 10SM OVC075 01/M05 A2925 RMK AO2 SLP908 T00111050
  • 151556Z 01008KT 10SM BKN080 BKN090 M01/M04 A2924 RMK AO2 SLP904 T10061039

TAF PADL
Valid from the 15 at 18:00 until the 16 at 18:00 UTC


151720Z 1518/1618 01009KT P6SM OVC070
FM160000 24005KT P6SM -SHRA OVC025
FM160400 22005KT P6SM OVC050
FM161500 04010KT P6SM SCT050 BKN100



MET'MAP, your aeronautical weather chart ! - Copyright ORBIFLY December 2007 - Disclaimer

ORBIFLY MET'MAP TEAM :

Programming & Development : Alexandra Zaïnal
Concept & Development : Baudouin d'Aumeries
Co-Development & Prog : Marc-Olivier Méhu
Technical & hardware support : Manuel Goepfert

Contact : metmap@orbifly.com




SOURCES & CREDITS :

   NOAA       Earth
Advisory